createdAt,value
2023-04-25T00:00:56.014Z,26.11
2023-04-25T00:01:56.052Z,26.09
2023-04-25T00:02:56.178Z,26.05
2023-04-25T00:03:56.733Z,26.08
2023-04-25T00:04:56.390Z,26.06
2023-04-25T00:05:56.356Z,26.06
2023-04-25T00:06:56.244Z,26.08
2023-04-25T00:07:56.316Z,26.06
2023-04-25T00:08:56.324Z,26.06
2023-04-25T00:09:56.372Z,26.06
2023-04-25T00:10:56.433Z,26.08
2023-04-25T00:11:56.481Z,26.06
2023-04-25T00:12:56.521Z,26.05
2023-04-25T00:13:56.573Z,26.06
2023-04-25T00:14:56.597Z,26.06
2023-04-25T00:15:56.701Z,26.05
2023-04-25T00:16:56.685Z,26.05
2023-04-25T00:17:56.802Z,26.06
2023-04-25T00:18:56.815Z,26.06
2023-04-25T00:19:56.830Z,26.06
2023-04-25T00:20:56.871Z,26.05
2023-04-25T00:21:56.941Z,26.05
2023-04-25T00:22:56.969Z,26.04
2023-04-25T00:23:57.016Z,26.06
2023-04-25T00:24:57.055Z,26.05
2023-04-25T00:25:57.096Z,26.06
2023-04-25T00:26:57.191Z,26.05
2023-04-25T00:27:57.214Z,26.04
2023-04-25T00:28:57.265Z,26.06
2023-04-25T00:29:57.310Z,26.05
2023-04-25T00:30:57.355Z,26.06
2023-04-25T00:31:57.487Z,26.06
2023-04-25T00:32:57.450Z,26.04
2023-04-25T00:33:57.496Z,26.06
2023-04-25T00:34:57.546Z,26.06
2023-04-25T00:35:57.573Z,26.06
2023-04-25T00:36:57.643Z,26.08
2023-04-25T00:37:57.699Z,26.06
2023-04-25T00:38:57.721Z,26.06
2023-04-25T00:39:57.802Z,26.08
2023-04-25T00:40:57.826Z,26.08
2023-04-25T00:41:57.842Z,26.04
2023-04-25T00:42:57.914Z,26.06
2023-04-25T00:43:57.989Z,26.06
2023-04-25T00:44:57.994Z,26.05
2023-04-25T00:45:58.057Z,26.05
2023-04-25T00:46:58.121Z,26.06
2023-04-25T00:47:58.203Z,26.05
2023-04-25T00:48:58.221Z,26.08
2023-04-25T00:49:58.246Z,26.06
2023-04-25T00:50:58.306Z,26.05
2023-04-25T00:51:58.376Z,26.06
2023-04-25T00:52:58.420Z,26.05
2023-04-25T00:53:58.448Z,26.05
2023-04-25T00:54:58.516Z,26.04
2023-04-25T00:55:58.545Z,26.05
2023-04-25T00:56:58.611Z,26.06
2023-04-25T00:57:58.647Z,26.05
2023-04-25T00:58:58.733Z,26.05
2023-04-25T00:59:58.758Z,26.05
2023-04-25T01:00:58.870Z,26.05
2023-04-25T01:01:58.901Z,26.04
2023-04-25T01:02:59.023Z,26.04
2023-04-25T01:03:59.070Z,26.05
2023-04-25T01:04:59.015Z,26.04
2023-04-25T01:05:59.067Z,26.04
2023-04-25T01:06:59.117Z,26.04
2023-04-25T01:07:59.176Z,26.02
2023-04-25T01:08:59.253Z,26.02
2023-04-25T01:09:59.299Z,26.02
2023-04-25T01:10:59.336Z,26.02
2023-04-25T01:11:59.366Z,26.04
2023-04-25T01:12:59.437Z,26.02
2023-04-25T01:13:59.472Z,26.02
2023-04-25T01:14:59.540Z,26.02
2023-04-25T01:15:59.585Z,26.05
2023-04-25T01:16:59.729Z,26.01
2023-04-25T01:17:59.727Z,26.04
2023-04-25T01:18:59.754Z,26.04
2023-04-25T01:19:59.800Z,26.04
2023-04-25T01:20:59.872Z,26.04
2023-04-25T01:21:59.887Z,26.04
2023-04-25T01:22:59.952Z,26.02
2023-04-25T01:23:59.986Z,26.02
2023-04-25T01:25:00.061Z,26.04
2023-04-25T01:26:00.105Z,25.99
2023-04-25T01:27:00.146Z,26.01
2023-04-25T01:28:00.216Z,26.02
2023-04-25T01:29:00.223Z,26.01
2023-04-25T01:30:00.288Z,26.04
2023-04-25T01:31:00.379Z,26.01
2023-04-25T01:32:00.431Z,26.02
2023-04-25T01:33:00.523Z,26.01
2023-04-25T01:34:00.512Z,26.02
2023-04-25T01:35:00.600Z,26.02
2023-04-25T01:36:00.633Z,26.02
2023-04-25T01:37:00.673Z,26.02
2023-04-25T01:38:00.759Z,26.02
2023-04-25T01:39:00.817Z,26.01
2023-04-25T01:40:00.874Z,26.01
2023-04-25T01:41:00.956Z,26.02
2023-04-25T01:42:01.030Z,25.99
2023-04-25T01:43:01.088Z,26.02
2023-04-25T01:44:01.131Z,26.02
2023-04-25T01:45:01.184Z,25.99
2023-04-25T01:46:01.297Z,26.01
2023-04-25T01:47:01.344Z,26.01
2023-04-25T01:48:01.392Z,25.99
2023-04-25T01:49:01.433Z,25.99
2023-04-25T01:50:01.505Z,26.02
2023-04-25T01:51:01.551Z,25.99
2023-04-25T01:52:01.603Z,26.01
2023-04-25T01:53:01.692Z,25.99
2023-04-25T01:54:01.760Z,26.01
2023-04-25T01:55:01.807Z,25.99
2023-04-25T01:56:01.887Z,25.99
2023-04-25T01:57:01.900Z,25.99
2023-04-25T01:58:01.992Z,26.01
2023-04-25T01:59:02.060Z,26.02
2023-04-25T02:00:02.108Z,26.01
2023-04-25T02:01:02.191Z,25.99
2023-04-25T02:02:02.248Z,25.99
2023-04-25T02:03:02.364Z,25.99
2023-04-25T02:04:02.664Z,25.98
2023-04-25T02:05:02.446Z,25.99
2023-04-25T02:06:02.479Z,26.02
2023-04-25T02:07:02.566Z,26.01
2023-04-25T02:08:02.606Z,26.02
2023-04-25T02:09:02.675Z,25.99
2023-04-25T02:10:02.740Z,25.99
2023-04-25T02:11:02.790Z,26.01
2023-04-25T02:12:02.847Z,26.01
2023-04-25T02:13:02.953Z,26.01
2023-04-25T02:14:03.795Z,25.99
2023-04-25T02:15:03.058Z,25.99
2023-04-25T02:16:03.246Z,25.99
2023-04-25T02:17:03.242Z,25.96
2023-04-25T02:18:03.255Z,26.01
2023-04-25T02:19:03.295Z,25.99
2023-04-25T02:20:03.384Z,25.99
2023-04-25T02:21:03.411Z,25.98
2023-04-25T02:22:03.480Z,25.99
2023-04-25T02:23:03.522Z,25.96
2023-04-25T02:24:03.603Z,25.96
2023-04-25T02:25:03.641Z,25.96
2023-04-25T02:26:03.700Z,25.95
2023-04-25T02:27:03.745Z,25.96
2023-04-25T02:28:03.762Z,25.96
2023-04-25T02:29:03.841Z,25.95
2023-04-25T02:30:03.892Z,25.96
2023-04-25T02:31:03.960Z,25.96
2023-04-25T02:32:03.968Z,25.94
2023-04-25T02:33:04.116Z,25.94
2023-04-25T02:34:04.078Z,25.95
2023-04-25T02:35:04.103Z,25.96
2023-04-25T02:36:04.192Z,25.95
2023-04-25T02:37:04.223Z,25.95
2023-04-25T02:38:04.272Z,25.91
2023-04-25T02:39:04.334Z,25.91
2023-04-25T02:40:04.392Z,25.88
2023-04-25T02:41:04.413Z,25.88
2023-04-25T02:42:04.460Z,25.89
2023-04-25T02:43:04.507Z,25.88
2023-04-25T02:44:04.543Z,25.88
2023-04-25T02:45:04.702Z,25.88
2023-04-25T02:46:04.778Z,25.85
2023-04-25T02:47:04.725Z,25.85
2023-04-25T02:48:04.795Z,25.85
2023-04-25T02:49:04.776Z,25.81
2023-04-25T02:50:04.874Z,25.75
2023-04-25T02:51:04.847Z,25.74
2023-04-25T02:52:04.883Z,25.75
2023-04-25T02:53:04.884Z,25.73
2023-04-25T02:54:04.934Z,25.74
2023-04-25T02:55:04.948Z,25.68
2023-04-25T02:56:04.953Z,25.70
2023-04-25T02:57:04.947Z,25.65
2023-04-25T02:58:04.975Z,25.63
2023-04-25T02:59:04.957Z,25.64
2023-04-25T03:00:05.050Z,25.61
2023-04-25T03:01:05.033Z,25.57
2023-04-25T03:02:04.976Z,25.57
2023-04-25T03:03:05.024Z,25.55
2023-04-25T03:04:04.982Z,25.53
2023-04-25T03:05:04.978Z,25.53
2023-04-25T03:06:04.979Z,25.50
2023-04-25T03:07:05.009Z,25.48
2023-04-25T03:08:05.004Z,25.44
2023-04-25T03:09:05.018Z,25.40
2023-04-25T03:10:05.028Z,25.38
2023-04-25T03:11:05.055Z,25.41
2023-04-25T03:12:05.100Z,25.37
2023-04-25T03:13:05.115Z,25.36
2023-04-25T03:14:05.106Z,25.31
2023-04-25T03:15:05.161Z,25.33
2023-04-25T03:16:05.259Z,25.30
2023-04-25T03:17:05.208Z,25.27
2023-04-25T03:18:05.268Z,25.29
2023-04-25T03:19:05.249Z,25.26
2023-04-25T03:20:05.275Z,25.29
2023-04-25T03:21:05.298Z,25.27
2023-04-25T03:22:05.314Z,25.27
2023-04-25T03:23:05.340Z,25.26
2023-04-25T03:24:05.362Z,25.29
2023-04-25T03:25:05.392Z,25.30
2023-04-25T03:26:05.398Z,25.31
2023-04-25T03:27:05.351Z,25.34
2023-04-25T03:28:05.424Z,25.37
2023-04-25T03:29:05.455Z,25.37
2023-04-25T03:30:05.392Z,25.38
2023-04-25T03:31:05.392Z,25.43
2023-04-25T03:32:05.433Z,25.45
2023-04-25T03:33:05.483Z,25.47
2023-04-25T03:34:05.396Z,25.50
2023-04-25T03:35:05.413Z,25.51
2023-04-25T03:36:05.387Z,25.50
2023-04-25T03:37:05.387Z,25.54
2023-04-25T03:38:05.369Z,25.55
2023-04-25T03:39:05.369Z,25.54
2023-04-25T03:40:05.381Z,25.57
2023-04-25T03:41:05.447Z,25.57
2023-04-25T03:42:05.469Z,25.58
2023-04-25T03:43:05.476Z,25.60
2023-04-25T03:44:05.458Z,25.58
2023-04-25T03:45:05.488Z,25.61
2023-04-25T03:46:05.528Z,25.60
2023-04-25T03:47:05.531Z,25.61
2023-04-25T03:48:05.619Z,25.65
2023-04-25T03:49:05.745Z,25.67
2023-04-25T03:50:05.681Z,25.67
2023-04-25T03:51:05.762Z,25.71
2023-04-25T03:52:05.810Z,25.73
2023-04-25T03:53:05.852Z,25.77
2023-04-25T03:54:05.873Z,25.77
2023-04-25T03:55:05.941Z,25.81
2023-04-25T03:56:05.976Z,25.83
2023-04-25T03:57:06.012Z,25.81
2023-04-25T03:58:06.067Z,25.85
2023-04-25T03:59:06.107Z,25.84
2023-04-25T04:00:06.143Z,25.87
2023-04-25T04:01:06.166Z,25.89
2023-04-25T04:02:06.225Z,25.88
2023-04-25T04:03:06.424Z,25.92
2023-04-25T04:04:06.655Z,25.94
2023-04-25T04:05:06.464Z,25.92
2023-04-25T04:06:06.492Z,25.94
2023-04-25T04:07:06.583Z,25.96
2023-04-25T04:08:06.622Z,25.94
2023-04-25T04:09:06.668Z,25.95
2023-04-25T04:10:06.770Z,25.95
2023-04-25T04:11:06.825Z,25.96
2023-04-25T04:12:06.904Z,25.99
2023-04-25T04:13:06.975Z,26.02
2023-04-25T04:14:06.979Z,26.02
2023-04-25T04:15:07.036Z,26.02
2023-04-25T04:16:07.165Z,26.06
2023-04-25T04:17:07.145Z,26.09
2023-04-25T04:18:07.302Z,26.08
2023-04-25T04:19:07.245Z,26.11
2023-04-25T04:20:07.302Z,26.11
2023-04-25T04:21:07.374Z,26.12
2023-04-25T04:22:07.412Z,26.12
2023-04-25T04:23:07.441Z,26.11
2023-04-25T04:24:07.536Z,26.14
2023-04-25T04:25:07.568Z,26.12
2023-04-25T04:26:07.600Z,26.12
2023-04-25T04:27:08.050Z,26.12
2023-04-25T04:28:07.721Z,26.12
2023-04-25T04:29:07.804Z,26.11
2023-04-25T04:30:07.897Z,26.11
2023-04-25T04:31:07.980Z,26.11
2023-04-25T04:32:07.990Z,26.09
2023-04-25T04:33:08.104Z,26.08
2023-04-25T04:34:08.109Z,26.06
2023-04-25T04:35:08.195Z,26.06
2023-04-25T04:36:08.228Z,26.09
2023-04-25T04:37:08.293Z,26.09
2023-04-25T04:38:08.344Z,26.09
2023-04-25T04:39:08.395Z,26.14
2023-04-25T04:40:08.464Z,26.11
2023-04-25T04:41:08.531Z,26.11
2023-04-25T04:42:08.594Z,26.12
2023-04-25T04:43:08.603Z,26.16
2023-04-25T04:44:08.966Z,26.16
2023-04-25T04:45:08.766Z,26.18
2023-04-25T04:46:08.808Z,26.18
2023-04-25T04:47:08.837Z,26.21
2023-04-25T04:48:08.905Z,26.21
2023-04-25T04:49:08.916Z,26.21
2023-04-25T04:50:08.976Z,26.25
2023-04-25T04:51:09.008Z,26.26
2023-04-25T04:52:09.146Z,26.25
2023-04-25T04:53:09.123Z,26.28
2023-04-25T04:54:09.150Z,26.26
2023-04-25T04:55:09.204Z,26.29
2023-04-25T04:56:09.241Z,26.29
2023-04-25T04:57:09.264Z,26.31
2023-04-25T04:58:09.329Z,26.31
2023-04-25T04:59:09.421Z,26.32
2023-04-25T05:00:09.429Z,26.32
2023-04-25T05:01:16.527Z,26.32
2023-04-25T05:02:09.551Z,26.31
2023-04-25T05:03:09.566Z,26.31
2023-04-25T05:04:09.626Z,26.29
2023-04-25T05:05:09.434Z,26.26
2023-04-25T05:06:09.434Z,26.26
2023-04-25T05:07:09.423Z,26.24
2023-04-25T05:08:09.426Z,26.22
2023-04-25T05:09:09.401Z,26.22
2023-04-25T05:10:09.396Z,26.21
2023-04-25T05:11:09.379Z,26.24
2023-04-25T05:12:09.422Z,26.24
2023-04-25T05:13:09.384Z,26.21
2023-04-25T05:14:09.401Z,26.21
2023-04-25T05:15:09.357Z,26.22
2023-04-25T05:16:09.367Z,26.21
2023-04-25T05:17:09.362Z,26.25
2023-04-25T05:18:09.405Z,26.24
2023-04-25T05:19:09.315Z,26.22
2023-04-25T05:20:09.301Z,26.25
2023-04-25T05:21:09.323Z,26.26
2023-04-25T05:22:09.309Z,26.28
2023-04-25T05:23:09.311Z,26.29
2023-04-25T05:24:09.314Z,26.28
2023-04-25T05:25:09.301Z,26.29
2023-04-25T05:26:09.316Z,26.28
2023-04-25T05:27:09.313Z,26.32
2023-04-25T05:28:09.355Z,26.31
2023-04-25T05:29:09.436Z,26.32
2023-04-25T05:30:09.863Z,26.29
2023-04-25T05:31:09.518Z,26.29
2023-04-25T05:32:09.621Z,26.29
2023-04-25T05:33:09.651Z,26.29
2023-04-25T05:34:09.630Z,26.28
2023-04-25T05:35:09.970Z,26.28
2023-04-25T05:36:09.732Z,26.28
2023-04-25T05:37:09.809Z,26.25
2023-04-25T05:38:09.853Z,26.22
2023-04-25T05:39:09.924Z,26.22
2023-04-25T05:40:10.385Z,26.25
2023-04-25T05:41:09.944Z,26.28
2023-04-25T05:42:09.985Z,26.32
2023-04-25T05:43:10.038Z,26.36
2023-04-25T05:44:10.115Z,26.40
2023-04-25T05:45:10.370Z,26.43
2023-04-25T05:46:17.170Z,26.42
2023-04-25T05:47:10.149Z,26.47
2023-04-25T05:48:10.148Z,26.52
2023-04-25T05:49:10.092Z,26.52
2023-04-25T05:50:10.096Z,26.55
2023-04-25T05:51:10.055Z,26.56
2023-04-25T05:52:10.055Z,26.59
2023-04-25T05:53:09.983Z,26.60
2023-04-25T05:54:09.973Z,26.62
2023-04-25T05:55:10.418Z,26.64
2023-04-25T05:56:09.949Z,26.66
2023-04-25T05:57:09.916Z,26.69
2023-04-25T05:58:09.884Z,26.70
2023-04-25T05:59:09.848Z,26.72
2023-04-25T06:00:09.861Z,26.79
2023-04-25T06:01:09.818Z,26.80
2023-04-25T06:02:09.845Z,26.82
2023-04-25T06:03:09.876Z,26.86
2023-04-25T06:04:10.035Z,26.87
2023-04-25T06:05:09.864Z,26.96
2023-04-25T06:06:09.653Z,26.97
2023-04-25T06:07:09.628Z,27.01
2023-04-25T06:08:09.628Z,27.06
2023-04-25T06:09:09.616Z,27.07
2023-04-25T06:10:09.583Z,27.11
2023-04-25T06:11:09.560Z,27.18
2023-04-25T06:12:09.527Z,27.20
2023-04-25T06:13:09.468Z,27.24
2023-04-25T06:14:09.441Z,27.24
2023-04-25T06:15:20.061Z,27.27
2023-04-25T06:16:10.336Z,27.31
2023-04-25T06:17:09.291Z,27.33
2023-04-25T06:18:09.335Z,27.33
2023-04-25T06:19:09.262Z,27.36
2023-04-25T06:20:09.255Z,27.40
2023-04-25T06:21:09.183Z,27.41
2023-04-25T06:22:09.144Z,27.42
2023-04-25T06:23:09.150Z,27.41
2023-04-25T06:24:09.097Z,27.40
2023-04-25T06:25:09.030Z,27.42
2023-04-25T06:26:09.020Z,27.45
2023-04-25T06:27:08.974Z,27.47
2023-04-25T06:28:08.913Z,27.47
2023-04-25T06:29:08.893Z,27.47
2023-04-25T06:30:08.863Z,27.48
2023-04-25T06:31:08.884Z,27.48
2023-04-25T06:32:08.850Z,27.50
2023-04-25T06:33:08.838Z,27.52
2023-04-25T06:34:08.853Z,27.54
2023-04-25T06:35:08.754Z,27.52
2023-04-25T06:36:08.769Z,27.54
2023-04-25T06:37:08.824Z,27.54
2023-04-25T06:38:08.840Z,27.54
2023-04-25T06:39:08.786Z,27.52
2023-04-25T06:40:08.762Z,27.51
2023-04-25T06:41:08.729Z,27.45
2023-04-25T06:42:08.706Z,27.47
2023-04-25T06:43:08.655Z,27.44
2023-04-25T06:44:08.671Z,27.50
2023-04-25T06:45:08.616Z,27.47
2023-04-25T06:46:08.950Z,27.51
2023-04-25T06:47:08.607Z,27.47
2023-04-25T06:48:08.512Z,27.50
2023-04-25T06:49:08.470Z,27.50
2023-04-25T06:50:08.451Z,27.48
2023-04-25T06:51:08.423Z,27.48
2023-04-25T06:52:08.365Z,27.52
2023-04-25T06:53:08.368Z,27.50
2023-04-25T06:54:08.333Z,27.48
2023-04-25T06:55:08.290Z,27.50
2023-04-25T06:56:08.278Z,27.50
2023-04-25T06:57:08.230Z,27.48
2023-04-25T06:58:08.196Z,27.51
2023-04-25T06:59:08.208Z,27.54
2023-04-25T07:00:08.207Z,27.55
2023-04-25T07:01:08.240Z,27.55
2023-04-25T07:02:08.350Z,27.58
2023-04-25T07:03:08.407Z,27.60
2023-04-25T07:04:08.367Z,27.60
2023-04-25T07:05:08.241Z,27.58
2023-04-25T07:06:08.214Z,27.62
2023-04-25T07:07:08.183Z,27.60
2023-04-25T07:08:08.201Z,27.62
2023-04-25T07:09:08.214Z,27.62
2023-04-25T07:10:08.334Z,27.65
2023-04-25T07:11:08.178Z,27.65
2023-04-25T07:12:08.230Z,27.66
2023-04-25T07:13:08.235Z,27.68
2023-04-25T07:14:08.200Z,27.71
2023-04-25T07:15:08.975Z,27.69
2023-04-25T07:16:08.444Z,27.71
2023-04-25T07:17:08.268Z,27.71
2023-04-25T07:18:08.296Z,27.71
2023-04-25T07:19:08.237Z,27.69
2023-04-25T07:20:08.192Z,27.71
2023-04-25T07:21:08.421Z,27.66
2023-04-25T07:22:08.262Z,27.68
2023-04-25T07:23:08.217Z,27.68
2023-04-25T07:24:08.202Z,27.69
2023-04-25T07:25:08.185Z,27.66
2023-04-25T07:26:08.109Z,27.62
2023-04-25T07:27:08.257Z,27.68
2023-04-25T07:28:08.096Z,27.65
2023-04-25T07:29:08.044Z,27.66
2023-04-25T07:30:08.007Z,27.69
2023-04-25T07:31:08.463Z,27.65
2023-04-25T07:32:07.970Z,27.60
2023-04-25T07:33:08.007Z,27.62
2023-04-25T07:34:07.898Z,27.58
2023-04-25T07:35:07.870Z,27.60
2023-04-25T07:36:07.849Z,27.58
2023-04-25T07:37:07.819Z,27.60
2023-04-25T07:38:07.851Z,27.55
2023-04-25T07:39:07.821Z,27.58
2023-04-25T07:40:07.860Z,27.58
2023-04-25T07:41:07.990Z,27.54
2023-04-25T07:42:07.857Z,27.55
2023-04-25T07:43:07.835Z,27.57
2023-04-25T07:44:07.754Z,27.60
2023-04-25T07:45:07.746Z,27.61
2023-04-25T07:46:07.841Z,27.61
2023-04-25T07:47:07.765Z,27.62
2023-04-25T07:48:07.813Z,27.65
2023-04-25T07:49:07.832Z,27.69
2023-04-25T07:50:07.840Z,27.65
2023-04-25T07:51:07.900Z,27.71
2023-04-25T07:52:07.881Z,27.73
2023-04-25T07:53:07.961Z,27.73
2023-04-25T07:54:07.933Z,27.75
2023-04-25T07:55:07.989Z,27.77
2023-04-25T07:56:08.458Z,27.77
2023-04-25T07:57:07.994Z,27.75
2023-04-25T07:58:08.000Z,27.72
2023-04-25T07:59:08.049Z,27.73
2023-04-25T08:00:08.058Z,27.75
2023-04-25T08:01:08.141Z,27.75
2023-04-25T08:02:08.125Z,27.72
2023-04-25T08:03:08.234Z,27.73
2023-04-25T08:04:09.076Z,27.71
2023-04-25T08:05:08.399Z,27.71
2023-04-25T08:06:08.771Z,27.68
2023-04-25T08:07:08.099Z,27.66
2023-04-25T08:08:08.050Z,27.68
2023-04-25T08:09:08.019Z,27.68
2023-04-25T08:10:08.011Z,27.65
2023-04-25T08:11:07.976Z,27.66
2023-04-25T08:12:07.955Z,27.64
2023-04-25T08:13:07.990Z,27.66
2023-04-25T08:14:07.964Z,27.65
2023-04-25T08:15:07.926Z,27.68
2023-04-25T08:16:08.059Z,27.69
2023-04-25T08:17:07.952Z,27.71
2023-04-25T08:18:07.985Z,27.71
2023-04-25T08:19:08.953Z,27.73
2023-04-25T08:20:07.992Z,27.75
2023-04-25T08:21:08.040Z,27.78
2023-04-25T08:22:08.018Z,27.78
2023-04-25T08:23:08.006Z,27.72
2023-04-25T08:24:08.031Z,27.78
2023-04-25T08:25:08.081Z,27.78
2023-04-25T08:26:08.129Z,27.79
2023-04-25T08:27:08.113Z,27.81
2023-04-25T08:28:08.132Z,27.82
2023-04-25T08:29:08.205Z,27.73
2023-04-25T08:30:08.234Z,27.82
2023-04-25T08:31:08.284Z,27.84
2023-04-25T08:32:08.456Z,27.84
2023-04-25T08:33:08.409Z,27.82
2023-04-25T08:34:08.350Z,27.81
2023-04-25T08:35:08.372Z,27.81
2023-04-25T08:36:08.376Z,27.77
2023-04-25T08:37:08.395Z,27.75
2023-04-25T08:38:08.367Z,27.71
2023-04-25T08:39:08.389Z,27.68
2023-04-25T08:40:08.376Z,27.69
2023-04-25T08:41:08.392Z,27.65
2023-04-25T08:42:08.495Z,27.64
2023-04-25T08:43:08.306Z,27.62
2023-04-25T08:44:08.299Z,27.58
2023-04-25T08:45:08.231Z,27.57
2023-04-25T08:46:08.258Z,27.51
2023-04-25T08:47:08.304Z,27.47
2023-04-25T08:48:08.179Z,27.44
2023-04-25T08:49:08.171Z,27.38
2023-04-25T08:50:08.273Z,27.34
2023-04-25T08:52:08.492Z,27.28
2023-04-25T08:53:08.793Z,27.17
2023-04-25T08:54:16.120Z,27.18
2023-04-25T08:55:09.109Z,27.17
2023-04-25T08:56:08.099Z,27.20
2023-04-25T08:57:08.451Z,27.18
2023-04-25T08:58:08.021Z,27.17
2023-04-25T08:59:08.021Z,27.10
2023-04-25T09:00:07.991Z,27.04
2023-04-25T09:01:08.090Z,27.01
2023-04-25T09:02:08.005Z,26.97
2023-04-25T09:03:08.098Z,26.94
2023-04-25T09:04:07.965Z,26.93
2023-04-25T09:05:07.921Z,26.94
2023-04-25T09:06:07.886Z,26.96
2023-04-25T09:07:08.106Z,26.94
2023-04-25T09:08:08.149Z,26.96
2023-04-25T09:09:08.226Z,26.97
2023-04-25T09:10:08.448Z,26.97
2023-04-25T09:11:07.950Z,27.03
2023-04-25T09:12:07.963Z,27.07
2023-04-25T09:13:07.935Z,27.11
2023-04-25T09:14:07.922Z,27.14
2023-04-25T09:15:07.935Z,27.20
2023-04-25T09:16:07.911Z,27.27
2023-04-25T09:17:08.043Z,27.33
2023-04-25T09:18:07.905Z,27.37
2023-04-25T09:19:07.806Z,27.41
2023-04-25T09:20:07.764Z,27.42
2023-04-25T09:21:13.716Z,27.48
2023-04-25T09:22:08.680Z,27.52
2023-04-25T09:23:07.665Z,27.55
2023-04-25T09:24:07.585Z,27.58
2023-04-25T09:25:07.569Z,27.60
2023-04-25T09:26:07.537Z,27.65
2023-04-25T09:27:07.977Z,27.65
2023-04-25T09:28:07.416Z,27.68
2023-04-25T09:29:07.397Z,27.72
2023-04-25T09:30:07.406Z,27.73
2023-04-25T09:31:07.430Z,27.77
2023-04-25T09:32:07.584Z,27.79
2023-04-25T09:33:07.494Z,27.79
2023-04-25T09:34:07.504Z,27.81
2023-04-25T09:35:07.505Z,27.81
2023-04-25T09:36:07.558Z,27.81
2023-04-25T09:37:08.083Z,27.84
2023-04-25T09:38:07.630Z,27.89
2023-04-25T09:39:07.630Z,27.88
2023-04-25T09:40:07.634Z,27.88
2023-04-25T09:41:07.622Z,27.91
2023-04-25T09:42:07.646Z,27.91
2023-04-25T09:43:08.001Z,27.93
2023-04-25T09:44:07.671Z,27.92
2023-04-25T09:45:07.712Z,27.88
2023-04-25T09:46:07.701Z,27.84
2023-04-25T09:47:07.620Z,27.79
2023-04-25T09:48:07.632Z,27.77
2023-04-25T09:49:07.618Z,27.75
2023-04-25T09:50:07.516Z,27.71
2023-04-25T09:51:07.508Z,27.68
2023-04-25T09:52:07.476Z,27.68
2023-04-25T09:53:07.502Z,27.65
2023-04-25T09:54:07.476Z,27.61
2023-04-25T09:55:07.413Z,27.58
2023-04-25T09:56:07.399Z,27.58
2023-04-25T09:57:07.380Z,27.54
2023-04-25T09:58:07.474Z,27.57
2023-04-25T09:59:07.391Z,27.52
2023-04-25T10:00:07.328Z,27.52
2023-04-25T10:01:07.409Z,27.47
2023-04-25T10:02:09.001Z,27.45
2023-04-25T10:03:07.391Z,27.47
2023-04-25T10:04:07.381Z,27.44
2023-04-25T10:05:07.365Z,27.47
2023-04-25T10:06:07.256Z,27.48
2023-04-25T10:07:07.237Z,27.48
2023-04-25T10:08:07.205Z,27.48
2023-04-25T10:09:07.220Z,27.50
2023-04-25T10:10:07.235Z,27.52
2023-04-25T10:11:07.095Z,27.52
2023-04-25T10:12:07.110Z,27.55
2023-04-25T10:13:07.145Z,27.54
2023-04-25T10:14:07.032Z,27.55
2023-04-25T10:15:07.007Z,27.61
2023-04-25T10:16:07.019Z,27.60
2023-04-25T10:17:06.965Z,27.60
2023-04-25T10:18:06.957Z,27.58
2023-04-25T10:19:06.915Z,27.58
2023-04-25T10:20:06.882Z,27.60
2023-04-25T10:21:06.864Z,27.65
2023-04-25T10:22:06.797Z,27.65
2023-04-25T10:23:06.836Z,27.60
2023-04-25T10:24:06.756Z,27.64
2023-04-25T10:25:06.815Z,27.60
2023-04-25T10:26:06.732Z,27.60
2023-04-25T10:27:06.684Z,27.61
2023-04-25T10:28:07.018Z,27.60
2023-04-25T10:29:06.591Z,27.60
2023-04-25T10:30:06.640Z,27.60
2023-04-25T10:31:06.750Z,27.61
2023-04-25T10:32:06.638Z,27.61
2023-04-25T10:33:06.529Z,27.62
2023-04-25T10:34:06.499Z,27.64
2023-04-25T10:35:06.444Z,27.64
2023-04-25T10:36:06.407Z,27.64
2023-04-25T10:37:06.401Z,27.60
2023-04-25T10:38:06.569Z,27.60
2023-04-25T10:39:06.326Z,27.57
2023-04-25T10:40:06.336Z,27.44
2023-04-25T10:41:07.060Z,27.28
2023-04-25T10:42:06.335Z,27.23
2023-04-25T10:43:06.564Z,27.20
2023-04-25T10:44:06.374Z,27.18
2023-04-25T10:45:06.358Z,27.17
2023-04-25T10:46:06.393Z,27.15
2023-04-25T10:47:06.522Z,27.15
2023-04-25T10:48:06.550Z,27.18
2023-04-25T10:49:06.431Z,27.17
2023-04-25T10:50:06.427Z,27.15
2023-04-25T10:51:06.488Z,27.17
2023-04-25T10:52:06.448Z,27.15
2023-04-25T10:53:06.610Z,27.14
2023-04-25T10:54:06.462Z,27.14
2023-04-25T10:55:06.504Z,27.13
2023-04-25T10:56:08.184Z,27.14
2023-04-25T10:57:07.497Z,27.17
2023-04-25T10:58:07.301Z,27.15
2023-04-25T10:59:06.566Z,27.18
2023-04-25T11:00:06.552Z,27.15
2023-04-25T11:01:06.569Z,27.18
2023-04-25T11:02:07.636Z,27.18
2023-04-25T11:03:06.682Z,27.17
2023-04-25T11:04:06.694Z,27.17
2023-04-25T11:05:06.530Z,27.18
2023-04-25T11:06:06.504Z,27.21
2023-04-25T11:07:07.795Z,27.24
2023-04-25T11:08:08.219Z,27.28
2023-04-25T11:09:06.455Z,27.34
2023-04-25T11:10:06.419Z,27.38
2023-04-25T11:11:06.416Z,27.44
2023-04-25T11:12:06.373Z,27.45
2023-04-25T11:13:06.586Z,27.50
2023-04-25T11:14:06.288Z,27.52
2023-04-25T11:15:06.982Z,27.52
2023-04-25T11:16:12.429Z,27.54
2023-04-25T11:17:07.303Z,27.60
2023-04-25T11:18:08.499Z,27.58
2023-04-25T11:19:06.510Z,27.62
2023-04-25T11:20:06.111Z,27.64
2023-04-25T11:21:06.171Z,27.68
2023-04-25T11:22:06.179Z,27.72
2023-04-25T11:23:06.276Z,27.72
2023-04-25T11:24:06.529Z,27.75
2023-04-25T11:25:06.216Z,27.78
2023-04-25T11:26:06.245Z,27.77
2023-04-25T11:27:06.211Z,27.78
2023-04-25T11:28:06.206Z,27.79
2023-04-25T11:29:06.591Z,27.75
2023-04-25T11:30:06.233Z,27.78
2023-04-25T11:31:06.957Z,27.73
2023-04-25T11:32:06.215Z,27.64
2023-04-25T11:33:06.202Z,27.51
2023-04-25T11:34:06.556Z,27.38
2023-04-25T11:35:06.195Z,27.28
2023-04-25T11:36:06.282Z,27.18
2023-04-25T11:37:06.305Z,27.11
2023-04-25T11:38:06.318Z,27.04
2023-04-25T11:39:06.538Z,26.99
2023-04-25T11:40:06.394Z,26.96
2023-04-25T11:41:06.454Z,26.90
2023-04-25T11:42:08.359Z,26.90
2023-04-25T11:43:07.437Z,26.86
2023-04-25T11:44:06.430Z,26.83
2023-04-25T11:45:06.404Z,26.82
2023-04-25T11:46:06.411Z,26.80
2023-04-25T11:47:06.302Z,26.80
2023-04-25T11:48:06.327Z,26.77
2023-04-25T11:49:06.293Z,26.76
2023-04-25T11:50:06.269Z,26.75
2023-04-25T11:51:06.261Z,26.70
2023-04-25T11:52:06.192Z,26.66
2023-04-25T11:53:06.251Z,26.63
2023-04-25T11:54:06.277Z,26.62
2023-04-25T11:55:06.342Z,26.59
2023-04-25T11:56:06.374Z,26.56
2023-04-25T11:57:06.446Z,26.53
2023-04-25T11:58:06.476Z,26.52
2023-04-25T11:59:07.273Z,26.50
2023-04-25T12:00:06.531Z,26.49
2023-04-25T12:01:06.615Z,26.49
2023-04-25T12:02:06.676Z,26.47
2023-04-25T12:03:06.766Z,26.45
2023-04-25T12:04:06.865Z,26.46
2023-04-25T12:05:21.674Z,26.45
2023-04-25T12:06:07.944Z,26.43
2023-04-25T12:07:06.727Z,26.43
2023-04-25T12:08:06.715Z,26.45
2023-04-25T12:09:06.733Z,26.45
2023-04-25T12:10:06.692Z,26.47
2023-04-25T12:11:06.693Z,26.46
2023-04-25T12:12:06.703Z,26.47
2023-04-25T12:13:06.612Z,26.46
2023-04-25T12:14:06.642Z,26.46
2023-04-25T12:15:06.635Z,26.47
2023-04-25T12:16:06.695Z,26.47
2023-04-25T12:17:06.710Z,26.46
2023-04-25T12:18:06.809Z,26.49
2023-04-25T12:19:06.784Z,26.50
2023-04-25T12:20:06.830Z,26.53
2023-04-25T12:21:06.896Z,26.53
2023-04-25T12:22:06.929Z,26.56
2023-04-25T12:23:06.968Z,26.55
2023-04-25T12:24:07.011Z,26.57
2023-04-25T12:25:07.035Z,26.56
2023-04-25T12:26:07.075Z,26.60
2023-04-25T12:27:07.124Z,26.57
2023-04-25T12:28:07.178Z,26.60
2023-04-25T12:29:07.234Z,26.62
2023-04-25T12:30:07.234Z,26.60
2023-04-25T12:31:07.324Z,26.62
2023-04-25T12:32:07.298Z,26.63
2023-04-25T12:33:07.416Z,26.66
2023-04-25T12:34:07.386Z,26.66
2023-04-25T12:35:07.449Z,26.67
2023-04-25T12:36:07.423Z,26.66
2023-04-25T12:37:07.462Z,26.67
2023-04-25T12:38:07.554Z,26.67
2023-04-25T12:39:07.568Z,26.69
2023-04-25T12:40:07.587Z,26.69
2023-04-25T12:41:07.605Z,26.70
2023-04-25T12:42:09.485Z,26.72
2023-04-25T12:43:07.657Z,26.72
2023-04-25T12:44:07.733Z,26.70
2023-04-25T12:45:07.742Z,26.72
2023-04-25T12:46:07.763Z,26.69
2023-04-25T12:47:07.902Z,26.67
2023-04-25T12:48:07.943Z,26.69
2023-04-25T12:49:18.237Z,26.67
2023-04-25T12:50:08.831Z,26.69
2023-04-25T12:51:07.797Z,26.67
2023-04-25T12:52:07.796Z,26.66
2023-04-25T12:53:07.766Z,26.64
2023-04-25T12:54:07.733Z,26.64